»·PEaware :: DCM717 KOTH-KOLM

DCM717 :: KOTH-KOLM

FLIGHT INFORMATION

Flight Status: Arrived
Operator: Unknown
More flights by this operator :: More flights under this callsign
Pilot: Ty S. (2873)
Aircraft: AIRBUS A320
(A320)
More flights by this aircraft type
Origin: KOTH North Bend Mun
United States
Destination: KOLM Olympia
United States
More flights between these airports :: More routes between these airports
Route: +OTH6 GAMMA OLM
File this flight plan on PilotEdge
Remarks: PBN / A1B1C1D1O1S1 DOF / 180622 REG / N320SB OPR / DCM PER / C RMK / TCAS SIMBRIEF
Altitude:
(Current/Filed)
30,000ft
Speed:
(Current/Filed)
451kts
Departed: 22-Jun-18 03:59 PM
Arrived: 22-Jun-18 04:40 PM
Distance/Time
Traveled:
221nm/0:40
Distance/Time
To Go:
Arrived

Flight Plot

Page will automatically refresh every two minutes.

Flight plan parsing failed; only flown route is shown


Map Options




Map Legend


Flown Route
Filed Route
Departure Airport
Arrival Airport
Navaid (VOR, NDB)
Fix

Horizontal Profiles

Position Reports

Time Latitude Longitude Heading Altitude Ground
Speed
22-Jun-18 14:55 43.416725 -124.246556 330 26ft 0kts
22-Jun-18 14:56 43.416725 -124.246556 330 26ft 0kts
22-Jun-18 14:57 43.416725 -124.246556 330 26ft 0kts
22-Jun-18 14:58 43.416725 -124.246556 330 26ft 0kts
22-Jun-18 14:59 43.416725 -124.246557 330 26ft 0kts
22-Jun-18 15:00 43.416725 -124.246557 330 26ft 0kts
22-Jun-18 15:01 43.416725 -124.246557 330 26ft 0kts
22-Jun-18 15:02 43.416725 -124.246557 330 26ft 0kts
22-Jun-18 15:03 43.416725 -124.246557 330 26ft 0kts
22-Jun-18 15:04 43.416725 -124.246557 330 26ft 0kts
22-Jun-18 15:05 43.416725 -124.246557 330 26ft 0kts
22-Jun-18 15:06 43.416725 -124.246557 330 26ft 0kts
22-Jun-18 15:07 43.416725 -124.246557 330 26ft 0kts
22-Jun-18 15:08 43.416725 -124.246557 330 26ft 0kts
22-Jun-18 15:09 43.416725 -124.246557 330 26ft 0kts
22-Jun-18 15:10 43.416725 -124.246557 330 26ft 0kts
22-Jun-18 15:11 43.416725 -124.246557 330 26ft 0kts
22-Jun-18 15:12 43.416725 -124.246557 330 26ft 0kts
22-Jun-18 15:13 43.416725 -124.246557 330 26ft 0kts
22-Jun-18 15:14 43.416725 -124.246557 330 26ft 0kts
22-Jun-18 15:15 43.416725 -124.246557 330 26ft 0kts
22-Jun-18 15:16 43.416725 -124.246556 330 26ft 0kts
22-Jun-18 15:17 43.416725 -124.246557 330 26ft 0kts
22-Jun-18 15:18 43.416725 -124.246557 330 26ft 0kts
22-Jun-18 15:19 43.416725 -124.246557 330 26ft 0kts
22-Jun-18 15:20 43.416725 -124.246557 330 26ft 0kts
22-Jun-18 15:21 43.416725 -124.246557 330 26ft 0kts
22-Jun-18 15:22 43.416725 -124.246557 330 26ft 0kts
22-Jun-18 15:23 43.416725 -124.246557 330 26ft 0kts
22-Jun-18 15:24 43.416725 -124.246557 330 26ft 0kts
22-Jun-18 15:25 43.416725 -124.246557 330 26ft 0kts
22-Jun-18 15:26 43.416725 -124.246557 330 26ft 0kts
22-Jun-18 15:27 43.416725 -124.246557 330 26ft 0kts
22-Jun-18 15:28 43.416725 -124.246557 330 26ft 0kts
22-Jun-18 15:29 43.416725 -124.246556 330 26ft 0kts
22-Jun-18 15:30 43.416725 -124.246556 330 26ft 0kts
22-Jun-18 15:31 43.416725 -124.246556 330 26ft 0kts
22-Jun-18 15:32 43.416725 -124.246556 330 26ft 0kts
22-Jun-18 15:33 43.416725 -124.246556 330 26ft 0kts
22-Jun-18 15:34 43.416725 -124.246556 330 26ft 0kts
22-Jun-18 15:35 43.416725 -124.246556 330 26ft 0kts
22-Jun-18 15:36 43.416725 -124.246556 330 26ft 0kts
22-Jun-18 15:37 43.416725 -124.246556 330 26ft 0kts
22-Jun-18 15:38 43.416725 -124.246556 330 26ft 0kts
22-Jun-18 15:39 43.416725 -124.246556 330 26ft 0kts
22-Jun-18 15:40 43.416725 -124.246556 330 26ft 0kts
22-Jun-18 15:41 43.416725 -124.246556 330 26ft 0kts
22-Jun-18 15:42 43.416725 -124.246556 330 26ft 0kts
22-Jun-18 15:43 43.416725 -124.246556 330 26ft 0kts
22-Jun-18 15:44 43.416725 -124.246556 330 26ft 0kts
22-Jun-18 15:45 43.416725 -124.246556 330 26ft 0kts
22-Jun-18 15:46 43.416725 -124.246556 330 26ft 0kts
22-Jun-18 15:47 43.416725 -124.246556 330 26ft 0kts
22-Jun-18 15:48 43.416725 -124.246556 330 26ft 0kts
22-Jun-18 15:49 43.416725 -124.246557 330 26ft 0kts
22-Jun-18 15:50 43.416725 -124.246557 330 26ft 0kts
22-Jun-18 15:51 43.416725 -124.246557 330 26ft 0kts
22-Jun-18 15:52 43.417234 -124.246725 351 26ft 4kts
22-Jun-18 15:53 43.418261 -124.246410 329 26ft 6kts
22-Jun-18 15:54 43.418311 -124.248801 240 26ft 9kts
22-Jun-18 15:55 43.416840 -124.252392 238 26ft 10kts
22-Jun-18 15:56 43.415516 -124.255601 241 26ft 8kts
22-Jun-18 15:57 43.414002 -124.259324 241 26ft 9kts
22-Jun-18 15:58 43.414959 -124.260066 60 26ft 0kts
22-Jun-18 15:59 43.432412 -124.225780 11 1382ft 150kts
22-Jun-18 16:00 43.438579 -124.275571 234 3747ft 227kts
22-Jun-18 16:01 43.454168 -124.345582 348 6161ft 257kts
22-Jun-18 16:02 43.526678 -124.323758 12 9135ft 281kts
22-Jun-18 16:03 43.606022 -124.293524 13 11286ft 326kts
22-Jun-18 16:04 43.700226 -124.256907 13 13006ft 366kts
22-Jun-18 16:05 43.799230 -124.218299 12 15276ft 377kts
22-Jun-18 16:06 43.901176 -124.178332 11 17300ft 388kts
22-Jun-18 16:07 44.006312 -124.136977 11 19130ft 399kts
22-Jun-18 16:08 44.112391 -124.095063 10 20749ft 409kts
22-Jun-18 16:09 44.216289 -124.053855 10 22182ft 418kts
22-Jun-18 16:10 44.328975 -124.008993 10 23580ft 427kts
22-Jun-18 16:11 44.443692 -123.963132 9 24858ft 435kts
22-Jun-18 16:12 44.560733 -123.916150 9 25999ft 444kts
22-Jun-18 16:13 44.680327 -123.867939 9 27079ft 451kts
22-Jun-18 16:14 44.801568 -123.818853 9 28063ft 459kts
22-Jun-18 16:15 44.924708 -123.768774 9 28919ft 466kts
22-Jun-18 16:16 45.048700 -123.718118 7 30021ft 464kts
22-Jun-18 16:17 45.167526 -123.669290 5 30239ft 445kts
22-Jun-18 16:18 45.284319 -123.621228 6 28324ft 431kts
22-Jun-18 16:19 45.397029 -123.574582 6 26432ft 418kts
22-Jun-18 16:20 45.506458 -123.529113 7 24542ft 405kts
22-Jun-18 16:21 45.612774 -123.484761 7 22681ft 393kts
22-Jun-18 16:22 45.715868 -123.441582 8 20843ft 381kts
22-Jun-18 16:23 45.815841 -123.399553 9 19046ft 370kts
22-Jun-18 16:24 45.913126 -123.358514 10 17201ft 362kts
22-Jun-18 16:25 46.005088 -123.319582 11 15849ft 357kts
22-Jun-18 16:26 46.100074 -123.279189 12 13807ft 356kts
22-Jun-18 16:27 46.180040 -123.245119 13 12347ft 344kts
22-Jun-18 16:28 46.266527 -123.208136 13 10764ft 332kts
22-Jun-18 16:29 46.349852 -123.172388 13 10039ft 299kts
22-Jun-18 16:30 46.428946 -123.138336 13 10019ft 298kts
22-Jun-18 16:31 46.508517 -123.103963 13 8842ft 299kts
22-Jun-18 16:32 46.587122 -123.069928 13 7421ft 294kts
22-Jun-18 16:33 46.664031 -123.036564 13 6390ft 275kts
22-Jun-18 16:34 46.733160 -123.005462 17 5599ft 258kts
22-Jun-18 16:35 46.797076 -122.969158 18 4704ft 222kts
22-Jun-18 16:36 46.845730 -122.941932 10 3335ft 175kts
22-Jun-18 16:37 46.890465 -122.927300 6 1713ft 153kts
22-Jun-18 16:38 46.930118 -122.915691 5 892ft 154kts
22-Jun-18 16:39 46.970314 -122.904172 10 217ft 90kts
22-Jun-18 16:40 46.976167 -122.901294 99 217ft 5kts
22-Jun-18 16:41 46.976348 -122.900265 20 217ft 9kts
22-Jun-18 16:42 46.977179 -122.899727 126 217ft 0kts
22-Jun-18 16:43 46.977427 -122.899921 160 217ft 0kts
22-Jun-18 16:44 46.977427 -122.899921 160 217ft 0kts
22-Jun-18 16:45 46.977427 -122.899921 160 217ft 0kts
22-Jun-18 16:46 46.977427 -122.899921 160 217ft 0kts
22-Jun-18 16:47 46.977427 -122.899921 160 217ft 0kts
22-Jun-18 16:48 46.977427 -122.899921 160 217ft 0kts
22-Jun-18 16:49 46.977427 -122.899921 160 217ft 0kts
22-Jun-18 16:50 46.977427 -122.899921 160 217ft 0kts
22-Jun-18 16:51 46.977427 -122.899921 160 217ft 0kts

Navigation Log

Ident Type
Flight plan parsing failed, navigation log unavailable